createdAt,value
2023-08-25T00:01:42.516Z,12.63
2023-08-25T00:04:09.581Z,9.15
2023-08-25T00:06:36.635Z,10.20
2023-08-25T00:09:05.027Z,8.48
2023-08-25T00:11:31.988Z,10.10
2023-08-25T00:13:59.032Z,11.68
2023-08-25T00:16:26.290Z,12.40
2023-08-25T00:18:53.364Z,8.40
2023-08-25T00:21:20.358Z,9.27
2023-08-25T00:23:47.250Z,9.60
2023-08-25T00:26:14.226Z,8.90
2023-08-25T00:28:41.068Z,11.18
2023-08-25T00:31:08.067Z,11.93
2023-08-25T00:33:34.982Z,9.48
2023-08-25T00:36:02.068Z,11.05
2023-08-25T00:38:29.758Z,10.18
2023-08-25T00:41:00.548Z,12.45
2023-08-25T00:43:28.146Z,9.15
2023-08-25T00:45:55.228Z,8.65
2023-08-25T00:48:22.121Z,8.18
2023-08-25T00:50:49.716Z,11.82
2023-08-25T00:53:16.733Z,11.65
2023-08-25T00:55:44.086Z,13.35
2023-08-25T00:58:11.829Z,8.15
2023-08-25T01:00:40.723Z,7.82
2023-08-25T01:03:07.987Z,9.15
2023-08-25T01:05:35.124Z,7.25
2023-08-25T01:08:02.186Z,7.55
2023-08-25T01:10:59.443Z,8.82
2023-08-25T01:13:51.198Z,12.48
2023-08-25T01:16:24.584Z,10.40
2023-08-25T01:18:52.043Z,9.82
2023-08-25T01:21:20.222Z,9.77
2023-08-25T01:23:58.980Z,10.10
2023-08-25T01:26:26.468Z,8.32
2023-08-25T01:28:53.412Z,8.23
2023-08-25T01:31:23.253Z,8.23
2023-08-25T01:33:50.985Z,8.63
2023-08-25T01:36:30.318Z,9.57
2023-08-25T01:39:10.405Z,10.20
2023-08-25T01:41:42.365Z,11.27
2023-08-25T01:44:11.224Z,7.97
2023-08-25T01:46:39.701Z,9.70
2023-08-25T01:49:08.388Z,10.93
2023-08-25T01:51:35.671Z,10.10
2023-08-25T01:54:02.769Z,8.30
2023-08-25T01:56:29.801Z,9.10
2023-08-25T01:58:56.849Z,10.55
2023-08-25T02:01:23.909Z,10.95
2023-08-25T02:03:50.936Z,8.98
2023-08-25T02:06:18.449Z,9.98
2023-08-25T02:08:45.825Z,8.27
2023-08-25T02:11:12.863Z,10.05
2023-08-25T02:13:39.846Z,9.07
2023-08-25T02:16:07.064Z,9.93
2023-08-25T02:18:34.046Z,8.10
2023-08-25T02:21:01.092Z,11.85
2023-08-25T02:23:28.171Z,13.40
2023-08-25T02:25:55.201Z,10.23
2023-08-25T02:28:22.138Z,13.88
2023-08-25T02:30:49.077Z,7.38
2023-08-25T02:33:17.962Z,8.32
2023-08-25T02:35:45.653Z,12.43
2023-08-25T02:38:12.873Z,8.23
2023-08-25T02:40:40.461Z,10.50
2023-08-25T02:43:08.538Z,7.78
2023-08-25T02:45:36.637Z,8.07
2023-08-25T02:48:04.433Z,9.60
2023-08-25T02:50:32.185Z,9.57
2023-08-25T02:52:59.169Z,7.43
2023-08-25T02:55:26.441Z,8.20
2023-08-25T02:57:53.960Z,7.20
2023-08-25T03:00:25.017Z,7.78
2023-08-25T03:02:55.632Z,9.30
2023-08-25T03:05:24.101Z,9.60
2023-08-25T03:07:55.139Z,8.63
2023-08-25T03:10:24.022Z,10.95
2023-08-25T03:12:52.612Z,10.93
2023-08-25T03:15:19.872Z,13.35
2023-08-25T03:17:47.142Z,10.25
2023-08-25T03:20:15.556Z,8.90
2023-08-25T03:22:42.591Z,10.05
2023-08-25T03:25:09.731Z,9.27
2023-08-25T03:27:39.193Z,8.07
2023-08-25T03:30:07.850Z,8.57
2023-08-25T03:32:34.918Z,9.82
2023-08-25T03:35:02.785Z,11.82
2023-08-25T03:37:30.113Z,13.10
2023-08-25T03:39:57.540Z,9.10
2023-08-25T03:42:27.294Z,8.55
2023-08-25T03:44:54.360Z,10.52
2023-08-25T03:47:21.411Z,10.15
2023-08-25T03:49:50.489Z,9.82
2023-08-25T03:52:17.569Z,7.82
2023-08-25T03:54:44.725Z,10.00
2023-08-25T03:57:12.056Z,10.85
2023-08-25T03:59:39.088Z,10.98
2023-08-25T04:02:06.127Z,12.85
2023-08-25T04:04:33.657Z,10.38
2023-08-25T04:07:01.068Z,13.00
2023-08-25T04:09:28.682Z,10.57
2023-08-25T04:11:58.479Z,9.73
2023-08-25T04:14:25.840Z,11.27
2023-08-25T04:16:52.858Z,8.80
2023-08-25T04:19:22.722Z,11.73
2023-08-25T04:21:51.142Z,11.00
2023-08-25T04:24:18.564Z,12.13
2023-08-25T04:26:45.954Z,12.65
2023-08-25T04:29:13.129Z,8.85
2023-08-25T04:31:41.121Z,11.55
2023-08-25T04:34:09.970Z,10.93
2023-08-25T04:36:38.119Z,10.13
2023-08-25T04:39:05.463Z,8.80
2023-08-25T04:41:33.618Z,10.18
2023-08-25T04:44:00.888Z,10.43
2023-08-25T04:46:29.691Z,17.45
2023-08-25T04:48:58.175Z,12.45
2023-08-25T04:51:25.632Z,13.20
2023-08-25T04:53:52.789Z,15.32
2023-08-25T04:56:20.379Z,16.75
2023-08-25T04:58:47.552Z,16.42
2023-08-25T05:01:15.712Z,17.48
2023-08-25T05:03:46.017Z,19.08
2023-08-25T05:06:13.628Z,13.10
2023-08-25T05:08:41.732Z,14.10
2023-08-25T05:11:10.521Z,16.30
2023-08-25T05:13:40.845Z,15.32
2023-08-25T05:16:10.409Z,23.38
2023-08-25T05:19:06.717Z,22.50
2023-08-25T05:21:35.317Z,23.33
2023-08-25T05:24:22.175Z,26.45
2023-08-25T05:26:52.908Z,20.33
2023-08-25T05:29:20.818Z,17.90
2023-08-25T05:31:49.593Z,20.08
2023-08-25T05:34:27.464Z,20.25
2023-08-25T05:36:56.197Z,26.15
2023-08-25T05:39:24.080Z,22.35
2023-08-25T05:41:51.084Z,23.98
2023-08-25T05:44:18.390Z,16.90
2023-08-25T05:46:45.619Z,16.05
2023-08-25T05:49:12.726Z,15.80
2023-08-25T05:51:40.239Z,14.65
2023-08-25T05:54:07.219Z,13.82
2023-08-25T05:56:34.158Z,15.93
2023-08-25T05:59:01.504Z,12.57
2023-08-25T06:01:31.212Z,13.07
2023-08-25T06:03:59.992Z,16.00
2023-08-25T06:06:27.125Z,13.52
2023-08-25T06:08:55.035Z,14.82
2023-08-25T06:11:23.880Z,11.88
2023-08-25T06:13:50.853Z,14.52
2023-08-25T06:16:17.950Z,15.70
2023-08-25T06:18:44.941Z,16.75
2023-08-25T06:21:12.061Z,13.82
2023-08-25T06:23:39.012Z,14.90
2023-08-25T06:26:07.485Z,15.30
2023-08-25T06:28:35.033Z,19.42
2023-08-25T06:31:02.361Z,16.75
2023-08-25T06:33:32.488Z,15.85
2023-08-25T06:35:59.878Z,22.67
2023-08-25T06:38:27.008Z,21.17
2023-08-25T06:40:56.232Z,21.45
2023-08-25T06:43:23.354Z,20.98
2023-08-25T06:45:50.488Z,21.55
2023-08-25T06:48:19.619Z,22.05
2023-08-25T06:50:46.597Z,20.63
2023-08-25T06:53:13.512Z,19.63
2023-08-25T06:55:40.413Z,18.75
2023-08-25T06:58:07.769Z,22.58
2023-08-25T07:00:35.679Z,20.67
2023-08-25T07:03:04.693Z,21.38
2023-08-25T07:05:32.254Z,21.30
2023-08-25T07:07:59.949Z,20.23
2023-08-25T07:10:28.030Z,19.10
2023-08-25T07:12:54.994Z,18.00
2023-08-25T07:15:21.971Z,26.58
2023-08-25T07:17:50.550Z,20.02
2023-08-25T07:20:18.052Z,25.90
2023-08-25T07:22:44.957Z,24.25
2023-08-25T07:25:12.211Z,25.38
2023-08-25T07:27:39.214Z,21.75
2023-08-25T07:30:07.775Z,25.23
2023-08-25T07:32:35.459Z,23.00
2023-08-25T07:35:02.522Z,24.73
2023-08-25T07:37:29.570Z,20.88
2023-08-25T07:39:58.113Z,25.75
2023-08-25T07:42:28.550Z,21.23
2023-08-25T07:44:56.990Z,17.13
2023-08-25T07:47:24.254Z,22.90
2023-08-25T07:49:54.179Z,22.05
2023-08-25T07:52:23.043Z,20.85
2023-08-25T07:54:50.065Z,25.00
2023-08-25T07:57:17.038Z,29.17
2023-08-25T07:59:43.979Z,22.05
2023-08-25T08:02:12.067Z,26.98
2023-08-25T08:04:39.521Z,17.83
2023-08-25T08:07:07.922Z,21.92
2023-08-25T08:09:38.014Z,23.00
2023-08-25T08:12:07.114Z,20.30
2023-08-25T08:14:45.491Z,19.17
2023-08-25T08:17:14.013Z,18.77
2023-08-25T08:19:42.742Z,22.00
2023-08-25T08:22:11.467Z,19.98
2023-08-25T08:24:49.793Z,19.80
2023-08-25T08:27:19.337Z,16.15
2023-08-25T08:29:47.993Z,16.15
2023-08-25T08:32:40.534Z,19.00
2023-08-25T08:35:10.041Z,15.68
2023-08-25T08:37:42.451Z,17.95
2023-08-25T08:40:11.589Z,15.43
2023-08-25T08:42:40.666Z,13.50
2023-08-25T08:45:11.289Z,16.02
2023-08-25T08:50:08.803Z,13.98
2023-08-25T08:52:36.976Z,16.17
2023-08-25T08:55:10.650Z,16.77
2023-08-25T08:57:38.639Z,14.07
2023-08-25T09:00:11.928Z,19.27
2023-08-25T09:02:46.128Z,13.95
2023-08-25T09:05:16.269Z,18.75
2023-08-25T09:07:49.639Z,14.75
2023-08-25T09:10:19.011Z,16.02
2023-08-25T09:12:49.784Z,14.30
2023-08-25T09:15:45.463Z,21.83
2023-08-25T09:18:12.856Z,15.15
2023-08-25T09:20:42.377Z,17.00
2023-08-25T09:23:14.385Z,15.73
2023-08-25T09:25:44.180Z,13.15
2023-08-25T09:28:14.474Z,18.13
2023-08-25T09:30:48.771Z,13.10
2023-08-25T09:33:16.870Z,17.33
2023-08-25T09:35:46.013Z,18.65
2023-08-25T09:38:25.697Z,12.65
2023-08-25T09:40:53.235Z,17.17
2023-08-25T09:43:38.488Z,16.80
2023-08-25T09:46:11.030Z,15.18
2023-08-25T09:48:45.933Z,14.73
2023-08-25T09:51:21.556Z,17.50
2023-08-25T09:53:59.360Z,14.48
2023-08-25T09:56:26.813Z,13.70
2023-08-25T09:58:54.660Z,15.95
2023-08-25T10:01:21.952Z,12.02
2023-08-25T10:03:49.319Z,12.82
2023-08-25T10:06:19.772Z,14.85
2023-08-25T10:08:48.714Z,10.27
2023-08-25T10:11:20.081Z,10.35
2023-08-25T10:13:52.342Z,10.18
2023-08-25T10:16:20.576Z,14.15
2023-08-25T10:18:51.263Z,14.52
2023-08-25T10:21:20.723Z,12.50
2023-08-25T10:23:52.861Z,14.45
2023-08-25T10:26:21.791Z,10.60
2023-08-25T10:28:49.885Z,12.60
2023-08-25T10:31:18.366Z,12.15
2023-08-25T10:33:50.591Z,14.50
2023-08-25T10:36:22.714Z,11.43
2023-08-25T10:38:56.551Z,10.75
2023-08-25T10:41:28.859Z,12.30
2023-08-25T10:43:57.742Z,10.48
2023-08-25T10:46:39.772Z,10.88
2023-08-25T10:49:13.830Z,12.68
2023-08-25T10:51:45.878Z,13.00
2023-08-25T10:54:20.940Z,9.50
2023-08-25T10:56:50.843Z,9.07
2023-08-25T10:59:18.884Z,11.60
2023-08-25T11:02:02.030Z,9.68
2023-08-25T11:04:32.816Z,12.60
2023-08-25T11:07:05.156Z,10.80
2023-08-25T11:09:34.498Z,11.85
2023-08-25T11:12:09.149Z,11.80
2023-08-25T11:14:41.417Z,11.82
2023-08-25T11:17:12.604Z,12.63
2023-08-25T11:19:45.270Z,9.00
2023-08-25T11:22:20.739Z,15.73
2023-08-25T11:24:53.211Z,13.50
2023-08-25T11:27:26.844Z,9.63
2023-08-25T11:30:19.017Z,10.98
2023-08-25T11:35:22.993Z,13.93
2023-08-25T11:37:57.263Z,9.10
2023-08-25T11:40:29.337Z,11.10
2023-08-25T11:43:00.183Z,9.17
2023-08-25T11:45:33.470Z,9.00
2023-08-25T11:48:05.396Z,12.15
2023-08-25T11:50:39.572Z,11.05
2023-08-25T11:53:16.432Z,9.90
2023-08-25T11:56:10.396Z,12.30
2023-08-25T11:58:40.624Z,9.10
2023-08-25T12:01:14.066Z,10.55
2023-08-25T12:04:01.808Z,11.15
2023-08-25T12:06:33.309Z,11.38
2023-08-25T12:09:02.754Z,12.68
2023-08-25T12:11:34.860Z,10.93
2023-08-25T12:14:04.835Z,8.13
2023-08-25T12:16:32.737Z,10.98
2023-08-25T12:19:07.454Z,11.10
2023-08-25T12:21:44.524Z,11.95
2023-08-25T12:24:11.930Z,10.43
2023-08-25T12:26:44.850Z,10.73
2023-08-25T12:29:13.752Z,9.07
2023-08-25T12:31:47.811Z,14.32
2023-08-25T12:34:35.151Z,10.07
2023-08-25T12:37:05.579Z,11.02
2023-08-25T12:39:43.025Z,7.85
2023-08-25T12:42:22.981Z,12.05
2023-08-25T12:44:52.736Z,12.23
2023-08-25T12:47:30.946Z,7.95
2023-08-25T12:50:15.585Z,7.78
2023-08-25T12:52:57.742Z,12.50
2023-08-25T12:55:31.820Z,8.95
2023-08-25T12:58:13.953Z,8.60
2023-08-25T13:00:44.526Z,9.07
2023-08-25T13:03:15.451Z,10.00
2023-08-25T13:05:42.672Z,9.30
2023-08-25T13:08:09.796Z,8.65
2023-08-25T13:10:36.838Z,9.48
2023-08-25T13:13:06.671Z,8.57
2023-08-25T13:15:36.201Z,10.32
2023-08-25T13:18:10.733Z,9.05
2023-08-25T13:20:38.051Z,7.43
2023-08-25T13:23:21.632Z,8.73
2023-08-25T13:25:53.932Z,5.68
2023-08-25T13:28:25.386Z,7.15
2023-08-25T13:30:53.876Z,8.63
2023-08-25T13:33:23.174Z,9.00
2023-08-25T13:35:52.782Z,9.15
2023-08-25T13:38:28.800Z,8.23
2023-08-25T13:41:17.037Z,10.80
2023-08-25T13:43:52.334Z,7.40
2023-08-25T13:46:25.495Z,5.60
2023-08-25T13:49:24.281Z,12.88
2023-08-25T13:51:53.915Z,7.57
2023-08-25T13:57:48.467Z,6.18
2023-08-25T14:00:18.568Z,8.68
2023-08-25T14:02:47.807Z,9.07
2023-08-25T14:05:22.381Z,7.85
2023-08-25T14:08:06.420Z,8.32
2023-08-25T14:10:41.258Z,7.93
2023-08-25T14:13:11.273Z,8.70
2023-08-25T14:15:40.841Z,7.88
2023-08-25T14:18:11.085Z,6.78
2023-08-25T14:23:08.273Z,8.55
2023-08-25T14:25:41.571Z,7.88
2023-08-25T14:28:16.398Z,10.73
2023-08-25T14:30:48.086Z,8.23
2023-08-25T14:33:19.676Z,8.85
2023-08-25T14:35:47.041Z,6.22
2023-08-25T14:38:14.420Z,9.07
2023-08-25T14:40:49.871Z,7.57
2023-08-25T14:43:16.913Z,9.07
2023-08-25T14:45:46.873Z,7.70
2023-08-25T14:48:18.020Z,9.50
2023-08-25T14:51:01.514Z,9.18
2023-08-25T14:53:32.903Z,8.15
2023-08-25T14:56:06.337Z,10.25
2023-08-25T14:58:34.506Z,6.80
2023-08-25T15:01:02.300Z,8.15
2023-08-25T15:03:29.575Z,9.77
2023-08-25T15:06:00.849Z,11.02
2023-08-25T15:08:30.829Z,7.72
2023-08-25T15:10:58.808Z,10.02
2023-08-25T15:13:26.362Z,9.57
2023-08-25T15:15:53.816Z,8.75
2023-08-25T15:18:21.093Z,9.63
2023-08-25T15:20:58.405Z,8.77
2023-08-25T15:23:25.914Z,9.05
2023-08-25T15:25:55.276Z,7.20
2023-08-25T15:28:24.023Z,10.48
2023-08-25T15:31:15.492Z,7.63
2023-08-25T15:33:46.156Z,8.80
2023-08-25T15:36:13.396Z,9.07
2023-08-25T15:38:42.687Z,7.85
2023-08-25T15:41:12.862Z,7.32
2023-08-25T15:43:44.045Z,6.93
2023-08-25T15:46:11.052Z,8.65
2023-08-25T15:48:39.588Z,6.93
2023-08-25T15:51:09.538Z,7.70
2023-08-25T15:53:36.670Z,7.20
2023-08-25T15:56:04.291Z,8.05
2023-08-25T15:58:31.333Z,12.35
2023-08-25T16:01:01.848Z,8.45
2023-08-25T16:03:31.374Z,6.32
2023-08-25T16:06:08.846Z,11.68
2023-08-25T16:08:36.282Z,8.85
2023-08-25T16:11:08.758Z,8.93
2023-08-25T16:13:38.993Z,9.75
2023-08-25T16:16:09.479Z,5.80
2023-08-25T16:18:37.790Z,9.93
2023-08-25T16:21:06.118Z,10.60
2023-08-25T16:23:37.173Z,13.18
2023-08-25T16:26:06.889Z,6.72
2023-08-25T16:28:34.351Z,7.33
2023-08-25T16:31:06.254Z,9.32
2023-08-25T16:33:34.612Z,7.80
2023-08-25T16:36:04.202Z,15.75
2023-08-25T16:38:33.790Z,9.02
2023-08-25T16:41:00.933Z,7.30
2023-08-25T16:43:27.983Z,7.47
2023-08-25T16:45:55.157Z,8.98
2023-08-25T16:48:23.496Z,8.18
2023-08-25T16:50:52.217Z,8.95
2023-08-25T16:53:21.781Z,7.05
2023-08-25T16:55:48.982Z,8.63
2023-08-25T16:58:16.294Z,8.90
2023-08-25T17:00:44.527Z,9.30
2023-08-25T17:03:14.512Z,9.13
2023-08-25T17:05:41.642Z,7.60
2023-08-25T17:08:09.607Z,8.75
2023-08-25T17:10:37.108Z,11.32
2023-08-25T17:13:04.522Z,7.53
2023-08-25T17:15:35.593Z,7.75
2023-08-25T17:18:02.916Z,10.27
2023-08-25T17:20:30.063Z,7.43
2023-08-25T17:22:57.481Z,10.02
2023-08-25T17:25:24.790Z,10.02
2023-08-25T17:27:52.001Z,9.77
2023-08-25T17:30:19.226Z,11.32
2023-08-25T17:32:46.368Z,8.45
2023-08-25T17:35:13.503Z,8.52
2023-08-25T17:37:41.108Z,12.55
2023-08-25T17:40:11.888Z,10.95
2023-08-25T17:45:06.148Z,12.82
2023-08-25T17:47:33.308Z,10.75
2023-08-25T17:50:02.561Z,13.50
2023-08-25T17:52:29.699Z,8.30
2023-08-25T17:54:56.800Z,11.95
2023-08-25T17:57:23.942Z,10.18
2023-08-25T17:59:51.439Z,10.25
2023-08-25T18:02:18.696Z,8.13
2023-08-25T18:04:45.742Z,12.20
2023-08-25T18:07:13.466Z,11.23
2023-08-25T18:09:43.861Z,12.18
2023-08-25T18:12:12.386Z,9.90
2023-08-25T18:14:39.563Z,10.57
2023-08-25T18:17:06.825Z,12.98
2023-08-25T18:19:33.934Z,9.82
2023-08-25T18:22:05.256Z,13.05
2023-08-25T18:24:32.635Z,12.18
2023-08-25T18:27:02.458Z,11.93
2023-08-25T18:29:31.139Z,15.13
2023-08-25T18:32:00.020Z,8.57
2023-08-25T18:34:28.588Z,11.75
2023-08-25T18:36:55.629Z,8.13
2023-08-25T18:39:22.920Z,10.80
2023-08-25T18:41:50.061Z,10.00
2023-08-25T18:44:17.185Z,9.23
2023-08-25T18:46:44.303Z,11.07
2023-08-25T18:49:11.958Z,12.50
2023-08-25T18:51:38.961Z,11.40
2023-08-25T18:54:06.378Z,22.20
2023-08-25T18:56:34.703Z,19.90
2023-08-25T18:59:01.818Z,12.05
2023-08-25T19:01:28.936Z,16.40
2023-08-25T19:03:56.016Z,13.48
2023-08-25T19:06:23.268Z,11.13
2023-08-25T19:08:50.425Z,14.35
2023-08-25T19:11:17.435Z,14.82
2023-08-25T19:13:45.303Z,11.55
2023-08-25T19:16:12.580Z,15.15
2023-08-25T19:18:39.789Z,14.50
2023-08-25T19:21:08.518Z,12.77
2023-08-25T19:23:35.603Z,12.15
2023-08-25T19:26:08.901Z,11.13
2023-08-25T19:28:37.278Z,10.40
2023-08-25T19:31:06.861Z,9.57
2023-08-25T19:33:34.146Z,27.35
2023-08-25T19:36:01.728Z,25.77
2023-08-25T19:38:28.981Z,22.48
2023-08-25T19:40:57.217Z,18.38
2023-08-25T19:43:24.301Z,14.05
2023-08-25T19:45:51.486Z,16.13
2023-08-25T19:48:18.715Z,14.88
2023-08-25T19:50:46.057Z,15.05
2023-08-25T19:53:13.100Z,20.83
2023-08-25T19:55:43.307Z,15.43
2023-08-25T19:58:10.931Z,16.27
2023-08-25T20:00:38.327Z,19.70
2023-08-25T20:03:05.819Z,12.52
2023-08-25T20:05:33.881Z,13.30
2023-08-25T20:08:01.015Z,12.65
2023-08-25T20:10:29.326Z,14.20
2023-08-25T20:12:57.496Z,15.18
2023-08-25T20:15:25.101Z,14.43
2023-08-25T20:17:52.349Z,15.45
2023-08-25T20:20:19.455Z,16.27
2023-08-25T20:22:47.895Z,16.10
2023-08-25T20:25:15.091Z,15.30
2023-08-25T20:27:42.137Z,10.52
2023-08-25T20:30:09.471Z,12.50
2023-08-25T20:32:36.729Z,13.52
2023-08-25T20:35:04.200Z,13.13
2023-08-25T20:37:31.269Z,12.95
2023-08-25T20:39:58.566Z,10.63
2023-08-25T20:42:25.731Z,10.95
2023-08-25T20:44:52.757Z,11.73
2023-08-25T20:47:19.836Z,11.45
2023-08-25T20:49:46.974Z,12.90
2023-08-25T20:52:14.275Z,9.90
2023-08-25T20:54:41.653Z,9.18
2023-08-25T20:57:08.733Z,8.88
2023-08-25T20:59:35.904Z,10.27
2023-08-25T21:02:03.031Z,9.90
2023-08-25T21:04:30.120Z,10.77
2023-08-25T21:06:57.188Z,13.00
2023-08-25T21:09:24.268Z,10.80
2023-08-25T21:11:51.436Z,9.50
2023-08-25T21:14:18.527Z,10.63
2023-08-25T21:16:45.620Z,12.25
2023-08-25T21:19:12.822Z,13.23
2023-08-25T21:21:42.655Z,13.50
2023-08-25T21:24:13.117Z,9.13
2023-08-25T21:26:40.224Z,9.55
2023-08-25T21:29:11.294Z,12.32
2023-08-25T21:31:39.835Z,8.63
2023-08-25T21:34:13.519Z,15.10
2023-08-25T21:36:40.569Z,11.45
2023-08-25T21:39:07.633Z,11.63
2023-08-25T21:41:34.592Z,16.50
2023-08-25T21:44:01.626Z,13.18
2023-08-25T21:46:29.915Z,12.80
2023-08-25T21:48:57.777Z,11.23
2023-08-25T21:51:24.827Z,11.75
2023-08-25T21:53:52.020Z,10.27
2023-08-25T21:56:19.182Z,11.90
2023-08-25T21:58:46.222Z,13.80
2023-08-25T22:01:15.942Z,9.70
2023-08-25T22:03:44.910Z,13.48
2023-08-25T22:06:12.418Z,12.95
2023-08-25T22:08:40.241Z,13.52
2023-08-25T22:11:16.105Z,11.00
2023-08-25T22:13:43.920Z,12.18
2023-08-25T22:16:11.420Z,13.75
2023-08-25T22:18:38.486Z,19.98
2023-08-25T22:21:05.676Z,11.30
2023-08-25T22:23:32.775Z,12.45
2023-08-25T22:25:59.813Z,12.23
2023-08-25T22:28:26.830Z,11.55
2023-08-25T22:30:54.377Z,11.63
2023-08-25T22:35:51.367Z,14.90
2023-08-25T22:38:18.531Z,12.23
2023-08-25T22:40:45.597Z,12.25
2023-08-25T22:43:12.713Z,11.32
2023-08-25T22:45:39.743Z,12.23
2023-08-25T22:48:07.444Z,13.57
2023-08-25T22:50:35.788Z,10.20
2023-08-25T22:53:02.898Z,13.45
2023-08-25T22:55:30.075Z,11.23
2023-08-25T22:57:57.354Z,15.80
2023-08-25T23:00:24.610Z,9.20
2023-08-25T23:02:51.679Z,11.90
2023-08-25T23:05:18.885Z,11.20
2023-08-25T23:07:46.386Z,10.57
2023-08-25T23:10:13.516Z,10.57
2023-08-25T23:12:40.668Z,9.75
2023-08-25T23:15:08.362Z,11.25
2023-08-25T23:17:35.461Z,12.10
2023-08-25T23:20:02.434Z,11.80
2023-08-25T23:22:29.396Z,11.23
2023-08-25T23:24:57.309Z,12.55
2023-08-25T23:27:24.445Z,12.88
2023-08-25T23:29:51.492Z,11.80
2023-08-25T23:32:18.529Z,11.93
2023-08-25T23:34:47.124Z,14.68
2023-08-25T23:37:14.178Z,10.15
2023-08-25T23:39:41.230Z,12.60
2023-08-25T23:42:08.330Z,9.88
2023-08-25T23:44:35.318Z,10.13
2023-08-25T23:47:02.308Z,12.45
2023-08-25T23:49:29.307Z,11.80
2023-08-25T23:51:58.556Z,11.02
2023-08-25T23:54:26.160Z,10.63
2023-08-25T23:56:53.260Z,11.10
2023-08-25T23:59:20.314Z,10.05
